createdAt,value
2023-05-17T00:02:26.363Z,96451.00
2023-05-17T00:06:31.932Z,96449.00
2023-05-17T00:10:39.544Z,96448.00
2023-05-17T00:14:42.633Z,96450.00
2023-05-17T00:18:45.958Z,96446.00
2023-05-17T00:22:50.522Z,96453.00
2023-05-17T00:26:53.660Z,96443.00
2023-05-17T00:30:59.834Z,96451.00
2023-05-17T00:35:03.287Z,96442.00
2023-05-17T00:39:08.284Z,96441.00
2023-05-17T00:43:11.358Z,96448.00
2023-05-17T00:47:14.474Z,96446.00
2023-05-17T00:51:21.000Z,96459.00
2023-05-17T00:55:28.270Z,96462.00
2023-05-17T00:59:33.710Z,96465.00
2023-05-17T01:03:39.025Z,96461.00
2023-05-17T01:07:42.167Z,96467.00
2023-05-17T01:11:56.438Z,96471.00
2023-05-17T01:16:11.752Z,96475.00
2023-05-17T01:20:23.843Z,96471.00
2023-05-17T01:24:31.454Z,96480.00
2023-05-17T01:28:39.001Z,96495.00
2023-05-17T01:32:44.065Z,96493.00
2023-05-17T01:36:47.637Z,96498.00
2023-05-17T01:41:03.206Z,96504.00
2023-05-17T01:45:13.737Z,96502.00
2023-05-17T01:49:22.969Z,96503.00
2023-05-17T01:53:32.303Z,96507.00
2023-05-17T01:57:44.446Z,96505.00
2023-05-17T02:01:51.829Z,96511.00
2023-05-17T02:05:58.643Z,96511.00
2023-05-17T02:10:04.275Z,96515.00
2023-05-17T02:14:07.447Z,96518.00
2023-05-17T02:18:13.165Z,96514.00
2023-05-17T02:22:19.219Z,96506.00
2023-05-17T02:26:26.452Z,96516.00
2023-05-17T02:30:35.022Z,96511.00
2023-05-17T02:34:45.092Z,96505.00
2023-05-17T02:38:48.331Z,96515.00
2023-05-17T02:42:53.684Z,96512.00
2023-05-17T02:46:57.359Z,96514.00
2023-05-17T02:51:01.886Z,96522.00
2023-05-17T02:55:09.199Z,96522.00
2023-05-17T02:59:12.258Z,96510.00
2023-05-17T03:03:15.447Z,96520.00
2023-05-17T03:07:20.095Z,96509.00
2023-05-17T03:11:23.181Z,96529.00
2023-05-17T03:15:26.897Z,96532.00
2023-05-17T03:19:30.137Z,96542.00
2023-05-17T03:23:35.020Z,96533.00
2023-05-17T03:27:41.117Z,96540.00
2023-05-17T03:31:45.001Z,96549.00
2023-05-17T03:35:50.413Z,96553.00
2023-05-17T03:39:57.908Z,96553.00
2023-05-17T03:44:01.487Z,96556.00
2023-05-17T03:48:06.595Z,96565.00
2023-05-17T03:52:09.877Z,96568.00
2023-05-17T03:56:18.167Z,96568.00
2023-05-17T04:00:22.461Z,96575.00
2023-05-17T04:04:28.021Z,96571.00
2023-05-17T04:08:31.178Z,96580.00
2023-05-17T04:12:39.592Z,96590.00
2023-05-17T04:16:45.182Z,96594.00
2023-05-17T04:20:54.114Z,96601.00
2023-05-17T04:24:57.271Z,96602.00
2023-05-17T04:29:02.149Z,96609.00
2023-05-17T04:33:06.891Z,96617.00
2023-05-17T04:37:16.702Z,96614.00
2023-05-17T04:41:19.991Z,96625.00
2023-05-17T04:45:26.589Z,96622.00
2023-05-17T04:49:33.397Z,96630.00
2023-05-17T04:53:37.645Z,96626.00
2023-05-17T04:57:42.182Z,96632.00
2023-05-17T05:01:46.974Z,96636.00
2023-05-17T05:05:50.297Z,96644.00
2023-05-17T05:09:54.551Z,96657.00
2023-05-17T05:13:57.886Z,96661.00
2023-05-17T05:18:02.458Z,96667.00
2023-05-17T05:22:11.598Z,96675.00
2023-05-17T05:26:17.096Z,96669.00
2023-05-17T05:30:23.741Z,96676.00
2023-05-17T05:34:28.647Z,96672.00
2023-05-17T05:38:31.918Z,96676.00
2023-05-17T05:42:34.999Z,96682.00
2023-05-17T05:46:38.046Z,96687.00
2023-05-17T05:50:44.092Z,96690.00
2023-05-17T05:54:50.135Z,96693.00
2023-05-17T05:58:54.682Z,96703.00
2023-05-17T06:03:03.958Z,96708.00
2023-05-17T06:07:11.101Z,96710.00
2023-05-17T06:11:15.024Z,96706.00
2023-05-17T06:15:18.349Z,96715.00
2023-05-17T06:19:23.532Z,96712.00
2023-05-17T06:23:28.212Z,96707.00
2023-05-17T06:27:33.124Z,96711.00
2023-05-17T06:31:38.533Z,96735.00
2023-05-17T06:35:54.851Z,96725.00
2023-05-17T06:40:16.101Z,96720.00
2023-05-17T06:44:20.072Z,96724.00
2023-05-17T06:48:23.246Z,96726.00
2023-05-17T06:52:26.589Z,96729.00
2023-05-17T06:56:31.669Z,96724.00
2023-05-17T07:00:34.832Z,96734.00
2023-05-17T07:04:38.012Z,96741.00
2023-05-17T07:08:41.465Z,96744.00
2023-05-17T07:12:48.707Z,96747.00
2023-05-17T07:16:54.801Z,96751.00
2023-05-17T07:20:57.872Z,96768.00
2023-05-17T07:25:00.909Z,96763.00
2023-05-17T07:29:05.342Z,96770.00
2023-05-17T07:33:09.006Z,96756.00
2023-05-17T07:37:13.315Z,96765.00
2023-05-17T07:41:22.541Z,96778.00
2023-05-17T07:45:29.323Z,96776.00
2023-05-17T07:49:33.113Z,96782.00
2023-05-17T07:53:38.772Z,96766.00
2023-05-17T07:57:41.804Z,96770.00
2023-05-17T08:01:46.531Z,96770.00
2023-05-17T08:05:49.951Z,96778.00
2023-05-17T08:09:58.126Z,96775.00
2023-05-17T08:14:01.434Z,96773.00
2023-05-17T08:18:08.115Z,96775.00
2023-05-17T08:22:11.548Z,96783.00
2023-05-17T08:26:16.836Z,96778.00
2023-05-17T08:30:28.804Z,96786.00
2023-05-17T08:34:33.796Z,96789.00
2023-05-17T08:38:40.128Z,96782.00
2023-05-17T08:42:44.004Z,96776.00
2023-05-17T08:46:53.985Z,96776.00
2023-05-17T08:51:00.032Z,96785.00
2023-05-17T08:55:05.322Z,96797.00
2023-05-17T08:59:13.720Z,96796.00
2023-05-17T09:03:26.641Z,96805.00
2023-05-17T09:07:31.180Z,96807.00
2023-05-17T09:11:36.454Z,96808.00
2023-05-17T09:15:40.009Z,96811.00
2023-05-17T09:19:45.598Z,96806.00
2023-05-17T09:24:01.841Z,96817.00
2023-05-17T09:28:12.298Z,96825.00
2023-05-17T09:32:16.994Z,96823.00
2023-05-17T09:36:21.458Z,96826.00
2023-05-17T09:40:26.606Z,96826.00
2023-05-17T09:44:29.689Z,96822.00
2023-05-17T09:48:35.217Z,96822.00
2023-05-17T09:52:40.239Z,96822.00
2023-05-17T09:56:45.362Z,96825.00
2023-05-17T10:00:57.757Z,96835.00
2023-05-17T10:05:07.758Z,96839.00
2023-05-17T10:09:15.816Z,96839.00
2023-05-17T10:13:25.992Z,96839.00
2023-05-17T10:17:30.594Z,96839.00
2023-05-17T10:21:35.725Z,96838.00
2023-05-17T10:25:39.297Z,96827.00
2023-05-17T10:29:46.989Z,96827.00
2023-05-17T10:33:52.076Z,96826.00
2023-05-17T10:37:55.604Z,96824.00
2023-05-17T10:42:13.476Z,96817.00
2023-05-17T10:46:21.403Z,96831.00
2023-05-17T10:50:25.618Z,96823.00
2023-05-17T10:54:36.819Z,96811.00
2023-05-17T10:58:41.713Z,96807.00
2023-05-17T11:02:48.852Z,96810.00
2023-05-17T11:06:53.780Z,96810.00
2023-05-17T11:11:11.959Z,96802.00
2023-05-17T11:15:18.280Z,96800.00
2023-05-17T11:19:24.791Z,96808.00
2023-05-17T11:23:31.803Z,96810.00
2023-05-17T11:27:38.775Z,96813.00
2023-05-17T11:31:46.142Z,96810.00
2023-05-17T11:35:58.051Z,96809.00
2023-05-17T11:40:06.905Z,96818.00
2023-05-17T11:44:12.943Z,96826.00
2023-05-17T11:48:17.354Z,96825.00
2023-05-17T11:52:22.538Z,96822.00
2023-05-17T11:56:39.408Z,96819.00
2023-05-17T12:00:45.683Z,96824.00
2023-05-17T12:04:48.720Z,96823.00
2023-05-17T12:08:53.299Z,96811.00
2023-05-17T12:12:56.746Z,96819.00
2023-05-17T12:17:02.599Z,96806.00
2023-05-17T12:21:08.745Z,96816.00
2023-05-17T12:25:25.621Z,96815.00
2023-05-17T12:29:31.504Z,96813.00
2023-05-17T12:33:39.438Z,96825.00
2023-05-17T12:37:42.764Z,96821.00
2023-05-17T12:41:49.861Z,96833.00
2023-05-17T12:45:54.486Z,96839.00
2023-05-17T12:50:03.335Z,96840.00
2023-05-17T12:54:06.520Z,96841.00
2023-05-17T12:58:11.018Z,96841.00
2023-05-17T13:02:14.140Z,96845.00
2023-05-17T13:06:17.189Z,96836.00
2023-05-17T13:10:26.196Z,96845.00
2023-05-17T13:14:44.433Z,96845.00
2023-05-17T13:18:52.574Z,96843.00
2023-05-17T13:22:55.935Z,96840.00
2023-05-17T13:26:58.991Z,96840.00
2023-05-17T13:31:03.570Z,96844.00
2023-05-17T13:35:07.787Z,96848.00
2023-05-17T13:39:15.347Z,96844.00
2023-05-17T13:43:18.431Z,96845.00
2023-05-17T13:47:23.422Z,96853.00
2023-05-17T13:51:29.571Z,96861.00
2023-05-17T13:55:34.553Z,96857.00
2023-05-17T13:59:38.044Z,96867.00
2023-05-17T14:03:42.892Z,96859.00
2023-05-17T14:07:46.792Z,96851.00
2023-05-17T14:11:53.318Z,96848.00
2023-05-17T14:15:58.612Z,96846.00
2023-05-17T14:20:03.565Z,96847.00
2023-05-17T14:24:07.855Z,96844.00
2023-05-17T14:28:16.238Z,96841.00
2023-05-17T14:32:25.644Z,96856.00
2023-05-17T14:36:30.201Z,96852.00
2023-05-17T14:40:33.899Z,96862.00
2023-05-17T14:44:39.892Z,96857.00
2023-05-17T14:48:44.592Z,96862.00
2023-05-17T14:52:50.831Z,96862.00
2023-05-17T14:56:54.058Z,96864.00
2023-05-17T15:01:05.519Z,96871.00
2023-05-17T15:05:12.582Z,96871.00
2023-05-17T15:09:18.877Z,96870.00
2023-05-17T15:13:22.577Z,96868.00
2023-05-17T15:17:26.396Z,96861.00
2023-05-17T15:21:29.469Z,96867.00
2023-05-17T15:25:38.133Z,96866.00
2023-05-17T15:29:45.408Z,96862.00
2023-05-17T15:33:53.509Z,96866.00
2023-05-17T15:37:59.853Z,96852.00
2023-05-17T15:42:04.757Z,96861.00
2023-05-17T15:46:11.797Z,96864.00
2023-05-17T15:50:15.073Z,96858.00
2023-05-17T15:54:18.793Z,96866.00
2023-05-17T15:58:32.871Z,96869.00
2023-05-17T16:02:39.163Z,96872.00
2023-05-17T16:06:43.395Z,96875.00
2023-05-17T16:10:48.867Z,96866.00
2023-05-17T16:14:53.265Z,96869.00
2023-05-17T16:18:57.753Z,96871.00
2023-05-17T16:23:01.294Z,96873.00
2023-05-17T16:27:08.118Z,96879.00
2023-05-17T16:31:13.282Z,96878.00
2023-05-17T16:35:22.297Z,96887.00
2023-05-17T16:39:31.339Z,96883.00
2023-05-17T16:43:36.227Z,96889.00
2023-05-17T16:47:41.155Z,96886.00
2023-05-17T16:51:50.587Z,96894.00
2023-05-17T16:55:53.683Z,96891.00
2023-05-17T16:59:57.130Z,96896.00
2023-05-17T17:04:09.037Z,96895.00
2023-05-17T17:08:12.104Z,96898.00
2023-05-17T17:12:25.390Z,96901.00
2023-05-17T17:16:32.779Z,96894.00
2023-05-17T17:20:44.698Z,96897.00
2023-05-17T17:24:48.296Z,96896.00
2023-05-17T17:28:52.746Z,96894.00
2023-05-17T17:32:56.274Z,96895.00
2023-05-17T17:37:02.882Z,96905.00
2023-05-17T17:41:09.948Z,96913.00
2023-05-17T17:45:13.415Z,96920.00
2023-05-17T17:49:22.765Z,96919.00
2023-05-17T17:53:28.409Z,96918.00
2023-05-17T17:57:32.153Z,96926.00
2023-05-17T18:01:37.581Z,96923.00
2023-05-17T18:05:45.650Z,96929.00
2023-05-17T18:09:54.797Z,96927.00
2023-05-17T18:13:59.720Z,96925.00
2023-05-17T18:18:03.024Z,96924.00
2023-05-17T18:22:07.600Z,96930.00
2023-05-17T18:26:14.711Z,96932.00
2023-05-17T18:30:18.548Z,96936.00
2023-05-17T18:34:21.612Z,96928.00
2023-05-17T18:38:27.375Z,96929.00
2023-05-17T18:42:34.168Z,96932.00
2023-05-17T18:46:37.339Z,96933.00
2023-05-17T18:50:40.754Z,96928.00
2023-05-17T18:54:48.113Z,96933.00
2023-05-17T18:58:55.707Z,96927.00
2023-05-17T19:02:58.937Z,96931.00
2023-05-17T19:07:03.593Z,96933.00
2023-05-17T19:11:09.881Z,96936.00
2023-05-17T19:15:14.384Z,96941.00
2023-05-17T19:19:22.123Z,96940.00
2023-05-17T19:23:28.680Z,96946.00
2023-05-17T19:27:31.732Z,96954.00
2023-05-17T19:31:42.233Z,96946.00
2023-05-17T19:35:46.678Z,96947.00
2023-05-17T19:39:50.456Z,96960.00
2023-05-17T19:43:56.342Z,96960.00
2023-05-17T19:48:10.246Z,96955.00
2023-05-17T19:52:13.274Z,96955.00
2023-05-17T19:56:16.316Z,96951.00
2023-05-17T20:00:21.771Z,96949.00
2023-05-17T20:04:26.423Z,96942.00
2023-05-17T20:08:29.855Z,96942.00
2023-05-17T20:12:32.993Z,96953.00
2023-05-17T20:16:36.634Z,96956.00
2023-05-17T20:20:42.616Z,96948.00
2023-05-17T20:24:47.535Z,96955.00
2023-05-17T20:28:52.511Z,96963.00
2023-05-17T20:32:55.897Z,96968.00
2023-05-17T20:37:01.193Z,96963.00
2023-05-17T20:41:06.625Z,96969.00
2023-05-17T20:45:11.583Z,96963.00
2023-05-17T20:49:19.595Z,96966.00
2023-05-17T20:53:25.939Z,96967.00
2023-05-17T20:57:31.975Z,96968.00
2023-05-17T21:01:38.237Z,96971.00
2023-05-17T21:05:41.459Z,96968.00
2023-05-17T21:09:50.297Z,96960.00
2023-05-17T21:13:53.434Z,96959.00
2023-05-17T21:17:57.365Z,96962.00
2023-05-17T21:22:01.129Z,96963.00
2023-05-17T21:26:07.623Z,96961.00
2023-05-17T21:30:13.894Z,96964.00
2023-05-17T21:34:17.199Z,96962.00
2023-05-17T21:38:20.767Z,96965.00
2023-05-17T21:42:25.417Z,96963.00
2023-05-17T21:46:28.834Z,96960.00
2023-05-17T21:50:32.584Z,96956.00
2023-05-17T21:54:35.857Z,96964.00
2023-05-17T21:58:44.865Z,96975.00
2023-05-17T22:02:48.850Z,96969.00
2023-05-17T22:06:53.795Z,96976.00
2023-05-17T22:10:57.230Z,96973.00
2023-05-17T22:15:01.934Z,96967.00
2023-05-17T22:19:07.519Z,96957.00
2023-05-17T22:23:12.813Z,96960.00
2023-05-17T22:27:15.958Z,96958.00
2023-05-17T22:31:23.912Z,96962.00
2023-05-17T22:35:29.368Z,96969.00
2023-05-17T22:39:36.475Z,96970.00
2023-05-17T22:43:39.710Z,96967.00
2023-05-17T22:47:44.293Z,96965.00
2023-05-17T22:51:48.745Z,96962.00
2023-05-17T22:55:54.743Z,96962.00
2023-05-17T22:59:59.882Z,96963.00
2023-05-17T23:04:04.543Z,96954.00
2023-05-17T23:08:08.067Z,96961.00
2023-05-17T23:12:14.153Z,96960.00
2023-05-17T23:16:17.426Z,96953.00
2023-05-17T23:20:26.523Z,96957.00
2023-05-17T23:24:40.568Z,96946.00
2023-05-17T23:28:43.996Z,96957.00
2023-05-17T23:32:48.794Z,96950.00
2023-05-17T23:36:53.478Z,96946.00
2023-05-17T23:40:58.322Z,96946.00
2023-05-17T23:45:01.935Z,96944.00
2023-05-17T23:49:06.137Z,96943.00
2023-05-17T23:53:10.971Z,96935.00
2023-05-17T23:57:15.364Z,96934.00
